createdAt,value
2019-03-09T00:01:30.970Z,15.27
2019-03-09T00:03:31.552Z,15.89
2019-03-09T00:16:30.809Z,16.54
2019-03-09T00:17:30.789Z,16.01
2019-03-09T00:18:30.795Z,15.40
2019-03-09T00:19:31.180Z,14.74
2019-03-09T00:20:30.769Z,14.00
2019-03-09T01:06:30.266Z,10.54
2019-03-09T01:07:30.312Z,10.12
2019-03-09T01:08:30.305Z,9.69
2019-03-09T01:09:30.253Z,10.10
2019-03-09T01:27:30.058Z,17.07
2019-03-09T01:28:30.091Z,17.10
2019-03-09T01:29:30.033Z,17.17
2019-03-09T01:30:30.012Z,16.93
2019-03-09T01:31:30.003Z,16.90
2019-03-09T01:32:30.494Z,16.64
2019-03-09T01:33:29.990Z,16.62
2019-03-09T01:34:29.980Z,16.57
2019-03-09T01:35:29.967Z,16.85
2019-03-09T01:36:29.954Z,16.93
2019-03-09T01:37:29.989Z,16.90
2019-03-09T01:38:29.984Z,16.99
2019-03-09T01:39:29.925Z,17.15
2019-03-09T01:40:29.907Z,17.08
2019-03-09T01:41:29.901Z,17.28
2019-03-09T01:42:29.925Z,17.33
2019-03-09T01:43:29.933Z,17.36
2019-03-09T01:44:29.865Z,17.50
2019-03-09T01:45:29.853Z,17.40
2019-03-09T01:46:29.852Z,17.23
2019-03-09T01:47:29.892Z,16.99
2019-03-09T01:48:29.822Z,16.85
2019-03-09T01:49:30.259Z,16.73
2019-03-09T01:50:29.809Z,16.88
2019-03-09T01:51:29.793Z,16.96
2019-03-09T01:52:29.788Z,16.87
2019-03-09T01:53:36.487Z,16.85
2019-03-09T01:54:31.805Z,16.90
2019-03-09T01:55:29.805Z,16.79
2019-03-09T01:56:29.739Z,16.88
2019-03-09T01:57:29.728Z,16.84
2019-03-09T01:58:29.776Z,16.59
2019-03-09T01:59:29.702Z,15.76
2019-03-09T02:00:29.740Z,15.38
2019-03-09T02:01:29.684Z,15.16
2019-03-09T02:02:29.670Z,15.14
2019-03-09T02:03:29.672Z,15.56
2019-03-09T02:04:29.654Z,15.72
2019-03-09T02:05:30.239Z,15.63
2019-03-09T02:06:29.629Z,15.25
2019-03-09T02:07:29.618Z,14.89
2019-03-09T02:08:29.607Z,14.68
2019-03-09T02:09:29.595Z,14.25
2019-03-09T02:10:29.632Z,13.93
2019-03-09T02:11:29.581Z,14.00
2019-03-09T02:12:29.563Z,14.21
2019-03-09T02:13:29.609Z,14.49
2019-03-09T02:14:29.544Z,14.77
2019-03-09T02:15:29.537Z,14.87
2019-03-09T02:16:29.527Z,15.18
2019-03-09T02:17:29.557Z,15.14
2019-03-09T02:18:29.497Z,15.02
2019-03-09T02:19:29.491Z,14.17
2019-03-09T02:20:29.481Z,13.48
2019-03-09T02:21:29.471Z,12.97
2019-03-09T02:22:29.914Z,12.70
2019-03-09T02:23:29.444Z,12.41
2019-03-09T02:24:29.436Z,12.04
2019-03-09T02:25:29.427Z,11.59
2019-03-09T02:26:29.422Z,11.21
2019-03-09T02:27:29.402Z,10.98
2019-03-09T02:28:29.448Z,11.21
2019-03-09T02:29:29.381Z,11.28
2019-03-09T02:30:29.365Z,11.50
2019-03-09T02:31:29.360Z,11.54
2019-03-09T02:32:29.354Z,11.31
2019-03-09T02:33:29.388Z,11.36
2019-03-09T02:34:29.323Z,11.38
2019-03-09T02:35:29.367Z,11.41
2019-03-09T02:36:29.297Z,12.23
2019-03-09T02:37:29.302Z,13.06
2019-03-09T02:38:29.840Z,13.94
2019-03-09T02:39:29.275Z,14.79
2019-03-09T02:40:29.321Z,15.12
2019-03-09T02:41:29.244Z,15.11
2019-03-09T02:42:29.247Z,15.34
2019-03-09T02:43:29.241Z,15.66
2019-03-09T02:44:29.219Z,16.11
2019-03-09T02:45:29.257Z,16.73
2019-03-09T02:46:29.195Z,17.18
2019-03-09T02:47:29.182Z,16.96
2019-03-09T02:48:29.181Z,17.08
2019-03-09T02:49:29.169Z,17.26
2019-03-09T02:50:29.208Z,17.23
2019-03-09T02:51:29.161Z,16.93
2019-03-09T02:52:29.136Z,17.13
2019-03-09T02:53:29.125Z,17.53
2019-03-09T02:54:29.178Z,17.90
2019-03-09T02:55:29.155Z,18.09
2019-03-09T02:56:29.096Z,18.30
2019-03-09T02:57:29.094Z,18.39
2019-03-09T02:58:29.073Z,18.57
2019-03-09T02:59:29.065Z,18.52
2019-03-09T03:00:29.506Z,18.42
2019-03-09T03:01:29.043Z,18.46
2019-03-09T03:02:29.034Z,18.77
2019-03-09T03:03:29.023Z,18.77
2019-03-09T03:04:29.061Z,18.82
2019-03-09T03:05:29.007Z,18.79
2019-03-09T03:06:28.986Z,18.77
2019-03-09T03:07:28.980Z,18.84
2019-03-09T03:08:29.025Z,19.01
2019-03-09T03:09:28.969Z,19.02
2019-03-09T03:10:29.000Z,19.16
2019-03-09T03:11:28.939Z,19.37
2019-03-09T03:12:29.004Z,19.72
2019-03-09T03:13:28.972Z,20.00
2019-03-09T03:14:28.958Z,20.49
2019-03-09T03:15:28.911Z,20.33
2019-03-09T03:16:28.891Z,20.35
2019-03-09T03:17:28.874Z,20.42
2019-03-09T03:18:29.420Z,20.18
2019-03-09T03:19:28.851Z,20.21
2019-03-09T03:20:28.848Z,20.16
2019-03-09T03:21:28.830Z,20.12
2019-03-09T03:22:28.827Z,20.33
2019-03-09T03:23:28.857Z,20.41
2019-03-09T03:24:28.796Z,20.18
2019-03-09T03:25:28.838Z,20.13
2019-03-09T03:26:28.774Z,20.05
2019-03-09T03:27:28.760Z,19.88
2019-03-09T03:28:28.749Z,19.50
2019-03-09T03:29:28.751Z,19.76
2019-03-09T03:30:28.795Z,19.83
2019-03-09T03:31:28.725Z,20.10
2019-03-09T03:32:28.715Z,20.49
2019-03-09T03:33:28.722Z,20.41
2019-03-09T03:34:29.188Z,20.34
2019-03-09T03:35:28.686Z,20.33
2019-03-09T03:36:28.666Z,20.90
2019-03-09T03:37:28.654Z,21.54
2019-03-09T03:38:28.648Z,21.78
2019-03-09T03:39:28.687Z,22.27
2019-03-09T03:40:28.617Z,22.40
2019-03-09T03:41:28.615Z,22.38
2019-03-09T03:42:28.613Z,21.79
2019-03-09T03:43:28.585Z,20.78
2019-03-09T03:44:28.584Z,19.79
2019-03-09T03:45:28.626Z,19.17
2019-03-09T03:46:28.568Z,19.78
2019-03-09T03:47:28.551Z,20.33
2019-03-09T03:48:28.542Z,20.75
2019-03-09T03:49:28.534Z,21.08
2019-03-09T03:50:28.529Z,21.39
2019-03-09T03:51:28.923Z,21.60
2019-03-09T03:52:28.499Z,21.10
2019-03-09T03:53:28.490Z,20.52
2019-03-09T03:54:28.482Z,20.27
2019-03-09T03:55:28.522Z,20.06
2019-03-09T03:56:28.462Z,20.45
2019-03-09T03:57:28.490Z,20.60
2019-03-09T03:58:28.440Z,20.49
2019-03-09T03:59:28.423Z,20.52
2019-03-09T04:00:28.431Z,20.76
2019-03-09T04:01:28.404Z,20.55
2019-03-09T04:02:28.456Z,20.27
2019-03-09T04:03:28.389Z,19.94
2019-03-09T04:04:28.375Z,19.78
2019-03-09T04:05:28.369Z,19.90
2019-03-09T04:06:28.356Z,19.49
2019-03-09T04:07:28.788Z,19.24
2019-03-09T04:08:28.338Z,19.20
2019-03-09T04:09:28.331Z,19.41
2019-03-09T04:10:28.319Z,19.78
2019-03-09T04:11:28.298Z,19.94
2019-03-09T04:12:28.346Z,20.28
2019-03-09T04:13:28.274Z,20.41
2019-03-09T04:14:28.271Z,20.57
2019-03-09T04:15:28.269Z,20.61
2019-03-09T04:16:28.253Z,20.64
2019-03-09T04:17:28.290Z,20.73
2019-03-09T04:18:28.231Z,20.49
2019-03-09T04:19:28.219Z,20.48
2019-03-09T04:20:28.201Z,20.50
2019-03-09T04:21:28.195Z,20.71
2019-03-09T04:22:28.246Z,20.85
2019-03-09T04:23:28.578Z,20.79
2019-03-09T04:24:28.171Z,20.97
2019-03-09T04:25:28.159Z,21.00
2019-03-09T04:26:28.148Z,20.95
2019-03-09T04:27:28.186Z,20.97
2019-03-09T04:28:28.213Z,21.05
2019-03-09T04:29:28.115Z,20.98
2019-03-09T04:30:28.101Z,21.05
2019-03-09T04:31:28.159Z,21.03
2019-03-09T04:32:28.115Z,21.08
2019-03-09T04:33:28.075Z,21.03
2019-03-09T04:34:28.063Z,21.05
2019-03-09T04:35:28.109Z,20.95
2019-03-09T04:36:28.053Z,21.03
2019-03-09T04:37:28.029Z,21.44
2019-03-09T04:38:28.022Z,21.54
2019-03-09T04:39:28.455Z,21.96
2019-03-09T04:40:27.998Z,22.51
2019-03-09T04:41:28.045Z,23.07
2019-03-09T04:42:28.084Z,23.39
2019-03-09T04:43:27.970Z,23.39
2019-03-09T04:44:27.966Z,23.15
2019-03-09T04:45:27.944Z,23.49
2019-03-09T04:46:27.942Z,23.84
2019-03-09T04:47:27.973Z,23.78
2019-03-09T04:48:27.922Z,23.69
2019-03-09T04:49:27.911Z,23.71
2019-03-09T04:50:27.897Z,24.13
2019-03-09T04:51:27.889Z,24.27
2019-03-09T04:52:27.935Z,23.74
2019-03-09T04:53:27.858Z,23.59
2019-03-09T04:54:27.898Z,23.23
2019-03-09T04:55:27.854Z,22.71
2019-03-09T04:56:27.831Z,23.34
2019-03-09T04:57:28.226Z,23.64
2019-03-09T04:58:27.817Z,23.79
2019-03-09T04:59:28.002Z,23.19
2019-03-09T05:00:27.796Z,22.36
2019-03-09T05:01:27.788Z,21.91
2019-03-09T05:02:27.773Z,22.06
2019-03-09T05:03:27.765Z,22.46
2019-03-09T05:04:27.803Z,22.33
2019-03-09T05:05:27.799Z,21.69
2019-03-09T05:06:27.733Z,21.41
2019-03-09T05:07:28.024Z,21.27
2019-03-09T05:08:27.705Z,21.15
2019-03-09T05:09:27.703Z,20.98
2019-03-09T05:10:27.700Z,20.90
2019-03-09T05:11:27.681Z,21.01
2019-03-09T05:12:27.671Z,21.51
2019-03-09T05:13:27.909Z,21.71
2019-03-09T05:14:27.653Z,21.61
2019-03-09T05:15:27.638Z,21.53
2019-03-09T05:16:27.626Z,20.78
2019-03-09T05:17:27.620Z,19.88
2019-03-09T05:18:27.603Z,18.68
2019-03-09T05:19:27.698Z,17.86
2019-03-09T05:20:27.588Z,17.47
2019-03-09T05:21:27.572Z,17.65
2019-03-09T05:22:27.566Z,18.24
2019-03-09T05:23:27.561Z,18.64
2019-03-09T05:24:27.545Z,18.01
2019-03-09T05:25:27.635Z,17.23
2019-03-09T05:26:27.515Z,16.62
2019-03-09T05:27:27.556Z,16.87
2019-03-09T05:28:27.502Z,17.66
2019-03-09T05:29:27.491Z,17.94
2019-03-09T05:30:27.484Z,18.39
2019-03-09T05:31:27.771Z,18.99
2019-03-09T05:32:27.459Z,19.24
2019-03-09T05:33:27.446Z,19.42
2019-03-09T05:34:27.439Z,18.99
2019-03-09T05:35:27.435Z,18.49
2019-03-09T05:36:27.417Z,18.36
2019-03-09T05:37:27.512Z,18.23
2019-03-09T05:38:27.392Z,18.12
2019-03-09T05:39:27.378Z,18.17
2019-03-09T05:40:27.373Z,18.20
2019-03-09T05:41:27.371Z,17.99
2019-03-09T05:42:27.358Z,18.37
2019-03-09T05:43:27.449Z,18.73
2019-03-09T05:44:27.336Z,19.04
2019-03-09T05:45:27.321Z,18.86
2019-03-09T05:46:27.311Z,18.64
2019-03-09T05:47:27.301Z,18.42
2019-03-09T05:48:27.288Z,18.46
2019-03-09T05:49:27.632Z,17.96
2019-03-09T05:50:27.281Z,18.34
2019-03-09T05:51:27.264Z,18.49
2019-03-09T05:52:27.248Z,18.79
2019-03-09T05:53:27.242Z,18.20
2019-03-09T05:54:27.228Z,17.33
2019-03-09T05:55:27.368Z,16.55
2019-03-09T05:56:27.206Z,16.03
2019-03-09T05:57:27.219Z,16.37
2019-03-09T05:58:27.184Z,16.22
2019-03-09T05:59:27.181Z,15.84
2019-03-09T06:00:27.164Z,16.54
2019-03-09T06:01:27.257Z,16.85
2019-03-09T06:02:27.151Z,17.41
2019-03-09T06:03:27.126Z,18.05
2019-03-09T06:04:27.128Z,17.83
2019-03-09T06:05:27.106Z,17.32
2019-03-09T06:06:27.103Z,16.79
2019-03-09T06:07:27.353Z,16.77
2019-03-09T06:08:27.085Z,17.20
2019-03-09T06:09:27.075Z,17.13
2019-03-09T06:10:27.058Z,16.11
2019-03-09T06:11:27.050Z,15.30
2019-03-09T06:12:27.050Z,14.98
2019-03-09T06:13:27.126Z,15.04
2019-03-09T06:14:27.020Z,14.53
2019-03-09T06:15:27.009Z,14.17
2019-03-09T06:16:26.991Z,14.89
2019-03-09T06:17:26.987Z,15.99
2019-03-09T06:18:26.979Z,16.47
2019-03-09T06:19:27.117Z,15.76
2019-03-09T06:20:26.955Z,14.98
2019-03-09T06:21:26.942Z,14.57
2019-03-09T06:22:26.923Z,14.71
2019-03-09T06:23:26.925Z,15.08
2019-03-09T06:24:26.911Z,16.07
2019-03-09T06:25:27.146Z,16.85
2019-03-09T06:26:26.885Z,17.36
2019-03-09T06:27:26.879Z,17.84
2019-03-09T06:28:26.867Z,18.27
2019-03-09T06:29:26.861Z,18.27
2019-03-09T06:30:26.841Z,18.09
2019-03-09T06:31:26.933Z,18.08
2019-03-09T06:32:26.806Z,18.37
2019-03-09T06:33:26.728Z,18.36
2019-03-09T06:34:26.721Z,18.21
2019-03-09T06:35:26.706Z,17.47
2019-03-09T06:36:26.696Z,16.69
2019-03-09T06:53:26.948Z,18.05
2019-03-09T06:54:26.586Z,18.26
2019-03-09T06:55:26.574Z,17.75
2019-03-09T06:56:26.566Z,16.87
2019-03-09T06:57:26.553Z,16.26
2019-03-09T06:58:26.547Z,15.61
2019-03-09T06:59:26.642Z,15.37
2019-03-09T07:00:26.530Z,16.37
2019-03-09T07:01:26.512Z,16.87
2019-03-09T07:02:26.507Z,16.84
2019-03-09T07:03:26.492Z,16.90
2019-03-09T07:04:26.485Z,16.79
2019-03-09T07:05:26.639Z,17.06
2019-03-09T07:06:26.466Z,17.48
2019-03-09T07:07:26.452Z,18.01
2019-03-09T07:08:26.436Z,18.47
2019-03-09T07:09:26.429Z,18.37
2019-03-09T07:10:26.424Z,17.55
2019-03-09T07:11:26.913Z,16.48
2019-03-09T07:12:26.390Z,16.11
2019-03-09T07:13:26.397Z,15.92
2019-03-09T07:14:26.368Z,15.61
2019-03-09T07:15:26.364Z,15.49
2019-03-09T07:16:26.352Z,15.63
2019-03-09T07:17:26.451Z,15.49
2019-03-09T07:18:26.346Z,16.33
2019-03-09T07:19:26.340Z,17.38
2019-03-09T07:20:26.313Z,17.32
2019-03-09T07:21:26.300Z,16.64
2019-03-09T07:22:26.296Z,16.09
2019-03-09T07:23:26.385Z,15.51
2019-03-09T07:24:26.269Z,15.37
2019-03-09T07:25:26.265Z,16.24
2019-03-09T07:26:26.255Z,16.95
2019-03-09T07:27:26.238Z,16.59
2019-03-09T07:28:26.220Z,16.26
2019-03-09T07:29:26.464Z,15.72
2019-03-09T07:30:26.219Z,15.94
2019-03-09T07:31:26.196Z,16.06
2019-03-09T07:32:26.195Z,16.76
2019-03-09T07:33:26.180Z,17.11
2019-03-09T07:34:26.165Z,17.48
2019-03-09T07:35:26.265Z,18.11
2019-03-09T07:36:26.148Z,18.40
2019-03-09T07:37:26.135Z,18.77
2019-03-09T07:38:26.129Z,18.86
2019-03-09T07:39:26.118Z,18.90
2019-03-09T07:40:26.112Z,18.99
2019-03-09T07:41:26.194Z,18.99
2019-03-09T07:42:26.074Z,18.99
2019-03-09T07:43:26.068Z,19.02
2019-03-09T07:44:26.059Z,18.94
2019-03-09T07:45:26.051Z,18.99
2019-03-09T07:46:26.040Z,19.13
2019-03-09T07:47:26.429Z,18.86
2019-03-09T07:48:26.013Z,18.42
2019-03-09T07:49:26.003Z,18.08
2019-03-09T07:50:26.002Z,18.39
2019-03-09T07:51:25.990Z,18.76
2019-03-09T07:52:25.973Z,18.42
2019-03-09T07:53:26.077Z,18.74
2019-03-09T07:54:25.956Z,18.91
2019-03-09T07:55:25.949Z,19.05
2019-03-09T07:56:25.934Z,19.23
2019-03-09T07:57:25.932Z,19.24
2019-03-09T07:58:25.914Z,19.30
2019-03-09T07:59:25.998Z,19.35
2019-03-09T08:00:25.901Z,19.54
2019-03-09T08:01:25.884Z,19.59
2019-03-09T08:02:25.873Z,19.65
2019-03-09T08:03:25.867Z,19.42
2019-03-09T08:04:25.850Z,19.35
2019-03-09T08:05:26.103Z,18.76
2019-03-09T08:06:25.826Z,17.83
2019-03-09T08:07:25.818Z,16.87
2019-03-09T08:08:25.806Z,16.51
2019-03-09T08:09:25.805Z,16.49
2019-03-09T08:10:25.789Z,17.00
2019-03-09T08:11:25.882Z,16.98
2019-03-09T08:12:25.777Z,16.47
2019-03-09T08:13:25.755Z,16.87
2019-03-09T08:14:25.751Z,17.53
2019-03-09T08:15:25.740Z,18.06
2019-03-09T08:16:35.152Z,18.39
2019-03-09T08:17:50.633Z,17.99
2019-03-09T08:18:50.643Z,17.55
2019-03-09T08:19:50.617Z,17.40
2019-03-09T08:20:50.633Z,16.92
2019-03-09T08:21:50.597Z,17.08
2019-03-09T08:22:50.850Z,17.20
2019-03-09T08:23:50.565Z,17.83
2019-03-09T08:24:50.578Z,18.17
2019-03-09T08:25:50.545Z,18.52
2019-03-09T08:26:50.542Z,18.76
2019-03-09T08:27:50.528Z,18.98
2019-03-09T08:28:50.619Z,19.10
2019-03-09T08:29:50.504Z,19.12
2019-03-09T08:30:50.493Z,19.28
2019-03-09T08:31:50.483Z,19.38
2019-03-09T08:32:50.496Z,19.41
2019-03-09T08:33:50.481Z,19.46
2019-03-09T08:34:50.556Z,19.56
2019-03-09T08:35:50.449Z,19.59
2019-03-09T08:36:50.428Z,19.67
2019-03-09T08:37:50.436Z,19.56
2019-03-09T08:38:50.439Z,19.54
2019-03-09T08:39:50.404Z,19.56
2019-03-09T08:40:50.535Z,19.62
2019-03-09T08:41:50.370Z,19.49
2019-03-09T08:42:50.380Z,19.52
2019-03-09T08:43:50.359Z,19.52
2019-03-09T08:44:50.344Z,19.38
2019-03-09T08:45:50.583Z,19.22
2019-03-09T08:46:50.329Z,18.61
2019-03-09T08:47:52.495Z,18.43
2019-03-09T08:48:50.309Z,18.49
2019-03-09T08:49:50.292Z,18.67
2019-03-09T08:50:50.276Z,19.02
2019-03-09T08:51:50.439Z,19.24
2019-03-09T08:52:50.297Z,19.38
2019-03-09T08:53:50.263Z,19.47
2019-03-09T08:54:50.239Z,19.60
2019-03-09T08:55:50.227Z,19.67
2019-03-09T08:56:50.252Z,19.71
2019-03-09T08:57:50.339Z,19.80
2019-03-09T08:58:50.196Z,19.84
2019-03-09T08:59:50.196Z,19.88
2019-03-09T09:00:50.169Z,19.76
2019-03-09T09:01:50.167Z,19.91
2019-03-09T09:02:50.156Z,19.91
2019-03-09T09:03:50.443Z,19.76
2019-03-09T09:04:50.133Z,19.71
2019-03-09T09:05:50.129Z,19.35
2019-03-09T09:06:50.105Z,19.31
2019-03-09T09:07:50.092Z,19.53
2019-03-09T09:08:50.083Z,19.71
2019-03-09T09:09:50.179Z,19.90
2019-03-09T09:10:50.070Z,19.90
2019-03-09T09:11:50.058Z,20.20
2019-03-09T09:12:50.045Z,20.30
2019-03-09T09:13:50.025Z,20.15
2019-03-09T09:14:50.023Z,20.08
2019-03-09T09:15:50.152Z,19.50
2019-03-09T09:16:49.999Z,19.13
2019-03-09T09:17:50.006Z,18.43
2019-03-09T09:18:49.985Z,17.63
2019-03-09T09:19:49.969Z,17.23
2019-03-09T09:20:49.960Z,16.73
2019-03-09T09:21:50.301Z,15.97
2019-03-09T09:22:49.941Z,15.51
2019-03-09T09:23:49.927Z,15.41
2019-03-09T09:24:49.914Z,15.45
2019-03-09T09:25:49.906Z,15.14
2019-03-09T09:26:49.895Z,14.94
2019-03-09T09:27:51.879Z,14.68
2019-03-09T09:28:49.875Z,14.10
2019-03-09T09:29:49.875Z,13.73
2019-03-09T09:30:49.850Z,13.58
2019-03-09T09:31:49.840Z,13.39
2019-03-09T09:32:49.833Z,13.11
2019-03-09T09:33:49.925Z,12.97
2019-03-09T09:34:49.815Z,12.85
2019-03-09T09:35:49.797Z,12.87
2019-03-09T09:36:49.792Z,12.74
2019-03-09T09:37:49.770Z,12.85
2019-03-09T09:38:49.768Z,13.14
2019-03-09T09:39:50.054Z,13.37
2019-03-09T09:40:49.749Z,13.61
2019-03-09T09:41:49.745Z,13.98
2019-03-09T09:42:49.728Z,13.78
2019-03-09T09:43:49.720Z,13.35
2019-03-09T09:44:49.707Z,13.15
2019-03-09T09:45:49.793Z,12.97
2019-03-09T09:46:49.677Z,12.74
2019-03-09T09:47:49.683Z,12.82
2019-03-09T09:48:49.665Z,12.59
2019-03-09T09:49:49.651Z,12.36
2019-03-09T09:50:49.648Z,12.43
2019-03-09T09:51:49.739Z,12.36
2019-03-09T09:52:49.625Z,12.50
2019-03-09T09:53:49.612Z,12.55
2019-03-09T09:54:49.596Z,12.59
2019-03-09T09:55:49.581Z,12.53
2019-03-09T09:56:49.574Z,12.48
2019-03-09T09:57:49.869Z,12.53
2019-03-09T09:58:49.556Z,12.78
2019-03-09T09:59:49.550Z,12.81
2019-03-09T10:00:49.534Z,12.64
2019-03-09T10:01:49.520Z,12.63
2019-03-09T10:02:49.513Z,12.56
2019-03-09T10:03:49.651Z,12.61
2019-03-09T10:04:49.496Z,12.41
2019-03-09T10:05:49.474Z,12.37
2019-03-09T10:06:49.477Z,12.37
2019-03-09T10:07:49.460Z,12.59
2019-03-09T10:08:49.448Z,12.84
2019-03-09T10:09:49.545Z,13.09
2019-03-09T10:10:49.434Z,12.96
2019-03-09T10:11:49.413Z,12.82
2019-03-09T10:12:49.410Z,12.69
2019-03-09T10:13:49.395Z,12.61
2019-03-09T10:14:49.644Z,12.59
2019-03-09T10:15:49.436Z,12.59
2019-03-09T10:16:49.366Z,12.75
2019-03-09T10:17:49.353Z,12.97
2019-03-09T10:18:49.341Z,13.37
2019-03-09T10:19:49.328Z,13.37
2019-03-09T10:20:49.471Z,13.54
2019-03-09T10:21:49.305Z,13.62
2019-03-09T10:22:49.290Z,13.58
2019-03-09T10:23:49.287Z,13.51
2019-03-09T10:24:49.281Z,13.36
2019-03-09T10:25:49.268Z,13.35
2019-03-09T10:26:49.406Z,13.97
2019-03-09T10:27:49.279Z,14.56
2019-03-09T10:28:49.232Z,14.65
2019-03-09T10:29:49.222Z,14.43
2019-03-09T10:30:49.209Z,14.10
2019-03-09T10:31:49.206Z,14.27
2019-03-09T10:32:49.545Z,14.80
2019-03-09T10:33:49.181Z,15.12
2019-03-09T10:34:49.167Z,15.11
2019-03-09T10:35:49.166Z,15.11
2019-03-09T10:36:49.148Z,15.16
2019-03-09T10:37:49.148Z,15.54
2019-03-09T10:38:49.281Z,15.93
2019-03-09T10:39:49.115Z,16.11
2019-03-09T10:40:49.102Z,16.30
2019-03-09T10:41:49.099Z,16.55
2019-03-09T10:42:49.084Z,16.90
2019-03-09T10:43:49.064Z,17.07
2019-03-09T10:44:49.908Z,17.23
2019-03-09T10:45:49.059Z,16.93
2019-03-09T10:46:49.046Z,16.49
2019-03-09T10:47:49.038Z,16.14
2019-03-09T10:48:49.017Z,16.30
2019-03-09T10:49:49.011Z,16.49
2019-03-09T10:50:49.354Z,16.67
2019-03-09T10:51:48.987Z,16.72
2019-03-09T10:52:48.981Z,16.67
2019-03-09T10:53:48.973Z,16.49
2019-03-09T10:54:48.957Z,16.55
2019-03-09T10:55:48.941Z,16.92
2019-03-09T10:56:49.038Z,16.96
2019-03-09T10:57:48.922Z,16.47
2019-03-09T10:58:48.910Z,16.12
2019-03-09T10:59:48.893Z,16.30
2019-03-09T11:00:48.901Z,16.72
2019-03-09T11:01:48.881Z,16.99
2019-03-09T11:02:49.025Z,17.35
2019-03-09T11:03:48.870Z,17.54
2019-03-09T11:04:48.861Z,17.83
2019-03-09T11:05:48.837Z,17.86
2019-03-09T11:06:48.859Z,18.05
2019-03-09T11:07:48.816Z,18.24
2019-03-09T11:08:49.156Z,18.33
2019-03-09T11:09:48.810Z,18.40
2019-03-09T11:10:48.785Z,18.46
2019-03-09T11:11:48.789Z,18.55
2019-03-09T11:12:48.770Z,18.65
2019-03-09T11:13:52.122Z,18.65
2019-03-09T11:14:48.854Z,18.74
2019-03-09T11:15:48.748Z,18.68
2019-03-09T11:16:48.722Z,18.61
2019-03-09T11:17:48.715Z,18.61
2019-03-09T11:18:48.708Z,18.73
2019-03-09T11:19:48.700Z,18.73
2019-03-09T11:20:48.787Z,18.74
2019-03-09T11:21:48.672Z,18.73
2019-03-09T11:22:48.667Z,18.79
2019-03-09T11:23:48.788Z,18.72
2019-03-09T11:24:48.645Z,18.73
2019-03-09T11:25:48.636Z,18.76
2019-03-09T11:26:48.921Z,18.80
2019-03-09T11:27:48.608Z,18.82
2019-03-09T11:28:48.615Z,18.95
2019-03-09T11:29:48.588Z,18.99
2019-03-09T11:30:48.584Z,18.90
2019-03-09T11:31:48.562Z,18.77
2019-03-09T11:32:48.662Z,18.86
2019-03-09T11:33:48.552Z,18.84
2019-03-09T11:34:48.542Z,18.91
2019-03-09T11:35:48.527Z,18.87
2019-03-09T11:36:48.516Z,18.86
2019-03-09T11:37:48.500Z,18.86
2019-03-09T11:38:48.597Z,18.87
2019-03-09T11:39:48.484Z,18.87
2019-03-09T11:40:56.858Z,18.95
2019-03-09T11:42:13.277Z,19.05
2019-03-09T11:43:13.269Z,19.04
2019-03-09T11:44:13.510Z,19.02
2019-03-09T11:45:13.243Z,19.07
2019-03-09T11:46:13.237Z,19.12
2019-03-09T11:47:13.231Z,19.14
2019-03-09T11:48:13.222Z,19.10
2019-03-09T11:49:13.207Z,19.05
2019-03-09T11:50:13.305Z,19.14
2019-03-09T11:51:13.186Z,19.09
2019-03-09T11:52:20.023Z,19.13
2019-03-09T11:53:15.165Z,19.14
2019-03-09T11:54:13.151Z,19.19
2019-03-09T11:55:13.143Z,19.09
2019-03-09T11:56:13.292Z,19.09
2019-03-09T11:57:13.120Z,19.14
2019-03-09T11:58:13.109Z,19.10
2019-03-09T11:59:13.115Z,19.17
2019-03-09T12:00:13.094Z,19.19
2019-03-09T12:01:13.088Z,19.16
2019-03-09T12:02:13.371Z,19.20
2019-03-09T12:03:13.069Z,19.27
2019-03-09T12:04:13.054Z,19.20
2019-03-09T12:05:13.043Z,19.28
2019-03-09T12:06:13.029Z,19.01
2019-03-09T12:07:13.022Z,18.61
2019-03-09T12:08:13.103Z,18.02
2019-03-09T12:09:13.004Z,17.80
2019-03-09T12:10:12.992Z,17.75
2019-03-09T12:11:12.982Z,18.11
2019-03-09T12:12:12.971Z,18.26
2019-03-09T12:13:12.954Z,18.49
2019-03-09T12:14:13.052Z,18.57
2019-03-09T12:15:12.941Z,18.70
2019-03-09T12:16:12.936Z,18.83
2019-03-09T12:17:13.066Z,18.87
2019-03-09T12:18:12.901Z,18.95
2019-03-09T12:19:12.893Z,18.98
2019-03-09T12:20:13.200Z,18.97
2019-03-09T12:21:12.881Z,18.99
2019-03-09T12:22:12.870Z,19.05
2019-03-09T12:23:12.858Z,19.05
2019-03-09T12:24:16.738Z,19.10
2019-03-09T12:25:14.931Z,19.12
2019-03-09T12:26:12.826Z,19.10
2019-03-09T12:27:12.810Z,19.02
2019-03-09T12:28:12.800Z,19.07
2019-03-09T12:29:12.794Z,18.86
2019-03-09T12:30:12.827Z,18.91
2019-03-09T12:31:12.868Z,18.92
2019-03-09T12:32:12.754Z,18.92
2019-03-09T12:33:12.751Z,18.84
2019-03-09T12:34:12.736Z,18.64
2019-03-09T12:35:12.721Z,18.62
2019-03-09T12:36:12.719Z,18.44
2019-03-09T12:37:12.960Z,18.33
2019-03-09T12:38:12.698Z,18.16
2019-03-09T12:39:12.695Z,18.16
2019-03-09T12:40:12.684Z,18.16
2019-03-09T12:41:12.673Z,18.03
2019-03-09T12:42:12.660Z,17.96
2019-03-09T12:43:12.746Z,17.41
2019-03-09T12:44:12.638Z,17.00
2019-03-09T12:45:12.628Z,16.93
2019-03-09T12:46:12.613Z,17.10
2019-03-09T12:47:12.603Z,17.18
2019-03-09T12:48:12.598Z,17.28
2019-03-09T12:49:12.681Z,17.28
2019-03-09T12:50:12.578Z,17.15
2019-03-09T12:51:12.564Z,16.92
2019-03-09T12:52:12.550Z,16.76
2019-03-09T12:53:14.168Z,16.18
2019-03-09T12:54:12.533Z,15.81
2019-03-09T12:55:12.918Z,15.78
2019-03-09T12:56:12.515Z,15.96
2019-03-09T12:57:12.497Z,16.01
2019-03-09T12:58:12.518Z,16.52
2019-03-09T12:59:12.488Z,16.87
2019-03-09T13:00:12.468Z,16.98
2019-03-09T13:01:12.557Z,17.00
2019-03-09T13:02:12.449Z,16.95
2019-03-09T13:03:12.440Z,16.74
2019-03-09T13:04:12.417Z,16.87
2019-03-09T13:05:12.414Z,17.07
2019-03-09T13:06:12.397Z,17.15
2019-03-09T13:07:12.491Z,16.96
2019-03-09T13:08:12.385Z,16.49
2019-03-09T13:09:12.376Z,16.01
2019-03-09T13:10:12.358Z,15.67
2019-03-09T13:11:12.360Z,15.05
2019-03-09T13:12:12.342Z,14.67
2019-03-09T13:13:12.574Z,14.39
2019-03-09T13:14:12.327Z,13.90
2019-03-09T13:15:12.303Z,13.61
2019-03-09T13:16:12.301Z,13.35
2019-03-09T13:17:12.290Z,13.02
2019-03-09T13:18:12.281Z,12.69
2019-03-09T13:19:12.418Z,12.55
2019-03-09T13:20:12.257Z,12.53
2019-03-09T13:21:12.236Z,12.97
2019-03-09T13:22:12.224Z,13.58
2019-03-09T13:23:12.220Z,14.24
2019-03-09T13:24:12.206Z,15.08
2019-03-09T13:25:12.305Z,15.42
2019-03-09T13:26:12.187Z,15.92
2019-03-09T13:27:12.184Z,16.12
2019-03-09T13:28:12.166Z,16.18
2019-03-09T13:29:12.154Z,16.04
2019-03-09T13:30:12.153Z,15.99
2019-03-09T13:31:12.377Z,15.84
2019-03-09T13:32:12.116Z,16.01
2019-03-09T13:33:12.122Z,15.76
2019-03-09T13:34:12.118Z,15.23
2019-03-09T13:35:12.108Z,14.94
2019-03-09T13:36:12.087Z,14.27
2019-03-09T13:37:12.164Z,13.79
2019-03-09T13:38:12.062Z,13.32
2019-03-09T13:39:12.050Z,12.79
2019-03-09T13:40:12.067Z,12.43
2019-03-09T13:41:12.042Z,12.40
2019-03-09T13:42:12.017Z,12.75
2019-03-09T13:43:12.116Z,13.69
2019-03-09T13:44:11.997Z,14.57
2019-03-09T13:45:11.997Z,15.26
2019-03-09T13:46:11.972Z,15.89
2019-03-09T13:47:11.970Z,16.41
2019-03-09T13:48:11.955Z,16.61
2019-03-09T13:49:12.188Z,16.80
2019-03-09T13:50:11.930Z,16.93
2019-03-09T13:51:11.921Z,16.96
2019-03-09T13:52:11.907Z,17.08
2019-03-09T13:53:11.897Z,17.15
2019-03-09T13:54:11.891Z,17.06
2019-03-09T13:55:11.975Z,16.93
2019-03-09T13:56:11.869Z,17.03
2019-03-09T13:57:11.860Z,17.06
2019-03-09T13:58:11.845Z,17.25
2019-03-09T13:59:11.834Z,17.25
2019-03-09T14:00:11.822Z,17.43
2019-03-09T14:01:11.912Z,17.30
2019-03-09T14:02:11.811Z,17.36
2019-03-09T14:03:11.789Z,17.47
2019-03-09T14:04:11.777Z,17.33
2019-03-09T14:05:11.778Z,17.40
2019-03-09T14:06:11.768Z,17.33
2019-03-09T14:07:11.991Z,17.25
2019-03-09T14:08:11.740Z,17.30
2019-03-09T14:09:11.725Z,17.06
2019-03-09T14:10:11.717Z,16.93
2019-03-09T14:11:11.704Z,16.85
2019-03-09T14:12:11.699Z,16.33
2019-03-09T14:13:11.790Z,16.04
2019-03-09T14:14:12.068Z,15.79
2019-03-09T14:15:11.667Z,15.61
2019-03-09T14:16:11.659Z,15.34
2019-03-09T14:17:11.649Z,15.34
2019-03-09T14:18:11.624Z,15.34
2019-03-09T14:19:11.719Z,15.41
2019-03-09T14:20:11.610Z,15.70
2019-03-09T14:21:11.597Z,15.66
2019-03-09T14:22:11.588Z,15.61
2019-03-09T14:23:11.577Z,15.74
2019-03-09T14:24:11.567Z,15.70
2019-03-09T14:25:11.951Z,15.48